Wetterdaten: aktuell Donnerstag, 01.06.2023 13:15
Datum Zeit Temperatur Luftfeuchte Luftdruck Regen Wind Richtung Richtung Taupunkt Windchill Windben
01.06.2023 13:15 23,1 C 44 % 1016,9 hPa 0,0 l/m 6,5 km/h (2 Bft) NW 310 10,2 C 23,1 C 14,5 km/h (3 Bft)
01.06.2023 13:10 22,8 C 46 % 1016,9 hPa 0,0 l/m 3,2 km/h (1 Bft) W-SW 253 10,6 C 22,8 C 9,7 km/h (2 Bft)
01.06.2023 13:05 22,7 C 39 % 1017,0 hPa 0,0 l/m 6,1 km/h (2 Bft) W-SW 252 8,0 C 22,7 C 14,5 km/h (3 Bft)
01.06.2023 13:00 23,5 C 46 % 1016,9 hPa 0,0 l/m 2,7 km/h (1 Bft) N-NW 336 11,2 C 23,5 C 8,0 km/h (2 Bft)
01.06.2023 12:55 22,9 C 39 % 1017,1 hPa 0,0 l/m 3,1 km/h (1 Bft) S 178 8,2 C 22,9 C 8,0 km/h (2 Bft)
01.06.2023 12:50 22,6 C 38 % 1017,0 hPa 0,0 l/m 2,1 km/h (1 Bft) S-SO 166 7,6 C 22,6 C 6,4 km/h (2 Bft)
01.06.2023 12:45 22,8 C 39 % 1017,2 hPa 0,0 l/m 4,7 km/h (1 Bft) NO 38 8,1 C 22,8 C 9,7 km/h (2 Bft)
01.06.2023 12:40 23,3 C 41 % 1017,2 hPa 0,0 l/m 4,2 km/h (1 Bft) N-NO 30 9,3 C 23,3 C 12,9 km/h (3 Bft)
01.06.2023 12:35 23,1 C 41 % 1017,2 hPa 0,0 l/m 3,8 km/h (1 Bft) N 349 9,1 C 23,1 C 11,3 km/h (2 Bft)
01.06.2023 12:30 23,2 C 42 % 1017,1 hPa 0,0 l/m 3,6 km/h (1 Bft) N-NO 32 9,6 C 23,2 C 11,3 km/h (2 Bft)
01.06.2023 12:25 22,6 C 39 % 1017,3 hPa 0,0 l/m 7,8 km/h (2 Bft) SO 144 7,9 C 22,1 C 14,5 km/h (3 Bft)
01.06.2023 12:20 22,4 C 42 % 1017,3 hPa 0,0 l/m 3,5 km/h (1 Bft) O 100 8,9 C 22,4 C 8,0 km/h (2 Bft)
01.06.2023 12:15 22,6 C 45 % 1017,4 hPa 0,0 l/m 1,6 km/h (1 Bft) O 84 10,1 C 22,6 C 3,2 km/h (1 Bft)
01.06.2023 12:10 22,2 C 43 % 1017,4 hPa 0,0 l/m 6,0 km/h (2 Bft) O-NO 60 9,0 C 22,2 C 11,3 km/h (2 Bft)
01.06.2023 12:05 22,6 C 45 % 1017,3 hPa 0,0 l/m 3,2 km/h (1 Bft) N-NW 346 10,1 C 22,6 C 12,9 km/h (3 Bft)
01.06.2023 12:00 22,0 C 46 % 1017,4 hPa 0,0 l/m 3,1 km/h (1 Bft) N-NO 13 9,8 C 22,0 C 8,0 km/h (2 Bft)
01.06.2023 11:55 22,3 C 41 % 1017,5 hPa 0,0 l/m 2,1 km/h (1 Bft) W-SW 250 8,4 C 22,3 C 4,8 km/h (1 Bft)
01.06.2023 11:50 22,1 C 43 % 1017,5 hPa 0,0 l/m 4,5 km/h (1 Bft) W 265 8,9 C 22,1 C 8,0 km/h (2 Bft)
01.06.2023 11:45 21,7 C 44 % 1017,5 hPa 0,0 l/m 5,2 km/h (1 Bft) W-NW 303 8,9 C 21,7 C 9,7 km/h (2 Bft)
01.06.2023 11:40 21,4 C 42 % 1017,5 hPa 0,0 l/m 3,9 km/h (1 Bft) SW 219 8,0 C 21,4 C 9,7 km/h (2 Bft)
01.06.2023 11:35 21,8 C 48 % 1017,5 hPa 0,0 l/m 2,3 km/h (1 Bft) NW 312 10,3 C 21,8 C 6,4 km/h (2 Bft)
01.06.2023 11:30 21,7 C 45 % 1017,5 hPa 0,0 l/m 4,7 km/h (1 Bft) NW 324 9,2 C 21,7 C 11,3 km/h (2 Bft)
01.06.2023 11:25 21,4 C 42 % 1017,6 hPa 0,0 l/m 3,7 km/h (1 Bft) W-SW 248 8,0 C 21,4 C 8,0 km/h (2 Bft)
01.06.2023 11:20 21,3 C 45 % 1017,6 hPa 0,0 l/m 1,3 km/h (1 Bft) NO 45 8,9 C 21,3 C 3,2 km/h (1 Bft)
01.06.2023 11:15 21,2 C 39 % 1017,6 hPa 0,0 l/m 3,2 km/h (1 Bft) NW 320 6,7 C 21,2 C 6,4 km/h (2 Bft)
01.06.2023 11:10 20,9 C 49 % 1017,5 hPa 0,0 l/m 3,0 km/h (1 Bft) N-NW 347 9,8 C 20,9 C 6,4 km/h (2 Bft)
01.06.2023 11:05 20,8 C 47 % 1017,5 hPa 0,0 l/m 3,7 km/h (1 Bft) N-NO 28 9,1 C 20,8 C 8,0 km/h (2 Bft)
01.06.2023 11:00 21,1 C 49 % 1017,7 hPa 0,0 l/m 3,7 km/h (1 Bft) N-NO 13 10,0 C 21,1 C 6,4 km/h (2 Bft)
01.06.2023 10:55 21,0 C 50 % 1017,7 hPa 0,0 l/m 3,3 km/h (1 Bft) N 11 10,2 C 21,0 C 6,4 km/h (2 Bft)
01.06.2023 10:50 20,8 C 53 % 1017,6 hPa 0,0 l/m 4,2 km/h (1 Bft) N-NO 22 10,9 C 20,8 C 6,4 km/h (2 Bft)
01.06.2023 10:45 20,9 C 50 % 1017,6 hPa 0,0 l/m 5,4 km/h (2 Bft) N 351 10,1 C 20,9 C 8,0 km/h (2 Bft)
01.06.2023 10:40 20,9 C 54 % 1017,7 hPa 0,0 l/m 4,9 km/h (1 Bft) NW 323 11,2 C 20,9 C 8,0 km/h (2 Bft)
01.06.2023 10:35 20,7 C 54 % 1017,7 hPa 0,0 l/m 5,8 km/h (2 Bft) N 360 11,1 C 20,7 C 12,9 km/h (3 Bft)
01.06.2023 10:30 20,3 C 56 % 1017,7 hPa 0,0 l/m 6,5 km/h (2 Bft) W-NW 295 11,2 C 20,3 C 9,7 km/h (2 Bft)
01.06.2023 10:25 20,2 C 55 % 1017,7 hPa 0,0 l/m 6,9 km/h (2 Bft) NW 318 10,9 C 20,0 C 11,3 km/h (2 Bft)
01.06.2023 10:20 20,1 C 57 % 1017,7 hPa 0,0 l/m 6,3 km/h (2 Bft) NW 319 11,3 C 20,1 C 9,7 km/h (2 Bft)
01.06.2023 10:15 20,1 C 54 % 1017,8 hPa 0,0 l/m 5,8 km/h (2 Bft) NW 317 10,5 C 20,1 C 9,7 km/h (2 Bft)
01.06.2023 10:10 20,1 C 57 % 1017,7 hPa 0,0 l/m 5,6 km/h (2 Bft) NW 313 11,3 C 20,1 C 9,7 km/h (2 Bft)
01.06.2023 10:05 20,2 C 55 % 1017,8 hPa 0,0 l/m 5,3 km/h (1 Bft) NW 308 10,9 C 20,2 C 8,0 km/h (2 Bft)
01.06.2023 10:00 20,1 C 53 % 1017,8 hPa 0,0 l/m 4,9 km/h (1 Bft) NW 312 10,2 C 20,1 C 8,0 km/h (2 Bft)
01.06.2023 09:55 19,9 C 58 % 1017,8 hPa 0,0 l/m 4,2 km/h (1 Bft) W 278 11,4 C 19,9 C 8,0 km/h (2 Bft)
01.06.2023 09:50 19,5 C 59 % 1017,8 hPa 0,0 l/m 3,6 km/h (1 Bft) W-SW 244 11,3 C 19,5 C 6,4 km/h (2 Bft)
01.06.2023 09:45 19,2 C 61 % 1017,8 hPa 0,0 l/m 4,6 km/h (1 Bft) NW 325 11,5 C 19,2 C 8,0 km/h (2 Bft)
01.06.2023 09:40 18,8 C 58 % 1017,9 hPa 0,0 l/m 5,5 km/h (2 Bft) N-NW 342 10,4 C 18,8 C 8,0 km/h (2 Bft)
01.06.2023 09:35 18,4 C 63 % 1018,0 hPa 0,0 l/m 4,2 km/h (1 Bft) N-NW 331 11,2 C 18,4 C 8,0 km/h (2 Bft)
01.06.2023 09:30 18,4 C 57 % 1018,1 hPa 0,0 l/m 5,1 km/h (1 Bft) W-NW 301 9,7 C 18,4 C 9,7 km/h (2 Bft)
01.06.2023 09:25 18,3 C 55 % 1018,1 hPa 0,0 l/m 4,3 km/h (1 Bft) N-NW 331 9,1 C 18,3 C 8,0 km/h (2 Bft)
01.06.2023 09:20 18,4 C 63 % 1018,1 hPa 0,0 l/m 3,4 km/h (1 Bft) N-NW 336 11,2 C 18,4 C 6,4 km/h (2 Bft)
01.06.2023 09:15 18,1 C 60 % 1018,0 hPa 0,0 l/m 3,2 km/h (1 Bft) NW 313 10,2 C 18,1 C 6,4 km/h (2 Bft)
01.06.2023 09:10 17,8 C 57 % 1018,0 hPa 0,0 l/m 2,1 km/h (1 Bft) N-NW 337 9,2 C 17,8 C 4,8 km/h (1 Bft)
01.06.2023 09:05 17,3 C 63 % 1018,1 hPa 0,0 l/m 1,9 km/h (1 Bft) NO 38 10,2 C 17,3 C 4,8 km/h (1 Bft)
01.06.2023 09:00 16,5 C 63 % 1018,0 hPa 0,0 l/m 2,7 km/h (1 Bft) SO 132 9,4 C 16,5 C 6,4 km/h (2 Bft)
01.06.2023 08:55 16,6 C 64 % 1018,1 hPa 0,0 l/m 2,0 km/h (1 Bft) SO 138 9,8 C 16,6 C 4,8 km/h (1 Bft)
01.06.2023 08:50 16,1 C 63 % 1018,2 hPa 0,0 l/m 2,3 km/h (1 Bft) S 173 9,1 C 16,1 C 6,4 km/h (2 Bft)
01.06.2023 08:45 15,9 C 65 % 1018,2 hPa 0,0 l/m 1,1 km/h (1 Bft) SO 130 9,3 C 15,9 C 3,2 km/h (1 Bft)
01.06.2023 08:40 15,4 C 66 % 1018,3 hPa 0,0 l/m 1,0 km/h (0 Bft) NO 46 9,1 C 15,4 C 3,2 km/h (1 Bft)
01.06.2023 08:35 15,0 C 66 % 1018,2 hPa 0,0 l/m 1,7 km/h (1 Bft) W 266 8,7 C 15,0 C 4,8 km/h (1 Bft)
01.06.2023 08:30 14,9 C 70 % 1018,3 hPa 0,0 l/m 2,4 km/h (1 Bft) N-NW 340 9,5 C 14,9 C 4,8 km/h (1 Bft)
01.06.2023 08:25 14,5 C 71 % 1018,3 hPa 0,0 l/m 2,8 km/h (1 Bft) W 267 9,3 C 14,5 C 4,8 km/h (1 Bft)
01.06.2023 08:20 14,1 C 70 % 1018,3 hPa 0,0 l/m 1,3 km/h (1 Bft) NW 325 8,7 C 14,1 C 6,4 km/h (2 Bft)
01.06.2023 08:15 13,5 C 67 % 1018,3 hPa 0,0 l/m 0,5 km/h (0 Bft) S-SO 154 7,5 C 13,5 C 3,2 km/h (1 Bft)
01.06.2023 08:10 13,4 C 70 % 1018,4 hPa 0,0 l/m 0,6 km/h (0 Bft) SO 140 8,0 C 13,4 C 3,2 km/h (1 Bft)
01.06.2023 08:05 12,9 C 72 % 1018,4 hPa 0,0 l/m 0,1 km/h (0 Bft) O 92 8,0 C 12,9 C 1,6 km/h (1 Bft)
01.06.2023 08:00 12,4 C 74 % 1018,4 hPa 0,0 l/m 1,2 km/h (1 Bft) O 92 7,9 C 12,4 C 3,2 km/h (1 Bft)
01.06.2023 07:55 12,2 C 76 % 1018,4 hPa 0,0 l/m 0,6 km/h (0 Bft) O 92 8,1 C 12,2 C 3,2 km/h (1 Bft)
01.06.2023 07:50 12,1 C 78 % 1018,4 hPa 0,0 l/m 1,3 km/h (1 Bft) O 92 8,4 C 12,1 C 3,2 km/h (1 Bft)
01.06.2023 07:45 11,7 C 78 % 1018,4 hPa 0,0 l/m 1,2 km/h (1 Bft) O 98 8,0 C 11,7 C 3,2 km/h (1 Bft)
01.06.2023 07:40 11,2 C 77 % 1018,5 hPa 0,0 l/m 1,2 km/h (1 Bft) O-SO 120 7,3 C 11,2 C 3,2 km/h (1 Bft)
01.06.2023 07:35 11,2 C 79 % 1018,5 hPa 0,0 l/m 1,3 km/h (1 Bft) O-SO 103 7,7 C 11,2 C 3,2 km/h (1 Bft)
01.06.2023 07:30 11,0 C 78 % 1018,5 hPa 0,0 l/m 0,5 km/h (0 Bft) N 355 7,3 C 11,0 C 1,6 km/h (1 Bft)
01.06.2023 07:25 10,9 C 80 % 1018,5 hPa 0,0 l/m 0,2 km/h (0 Bft) N 355 7,6 C 10,9 C 1,6 km/h (1 Bft)
01.06.2023 07:20 10,7 C 81 % 1018,5 hPa 0,0 l/m 0,0 km/h (0 Bft) N 355 7,6 C 10,7 C 1,6 km/h (1 Bft)
01.06.2023 07:15 10,3 C 81 % 1018,6 hPa 0,0 l/m 0,3 km/h (0 Bft) N 355 7,2 C 10,3 C 1,6 km/h (1 Bft)
01.06.2023 07:10 9,6 C 85 % 1018,6 hPa 0,0 l/m 0,0 km/h (0 Bft) N 355 7,2 C 9,6 C 0,0 km/h (0 Bft)
01.06.2023 07:05 9,4 C 83 % 1018,5 hPa 0,0 l/m 0,1 km/h (0 Bft) N 355 6,7 C 9,4 C 1,6 km/h (1 Bft)
01.06.2023 07:00 9,3 C 84 % 1018,5 hPa 0,0 l/m 0,0 km/h (0 Bft) N 355 6,7 C 9,3 C 0,0 km/h (0 Bft)
01.06.2023 06:55 8,9 C 86 % 1018,5 hPa 0,0 l/m 0,0 km/h (0 Bft) N 355 6,7 C 8,9 C 0,0 km/h (0 Bft)
01.06.2023 06:50 8,6 C 87 % 1018,5 hPa 0,0 l/m 0,0 km/h (0 Bft) N 355 6,6 C 8,6 C 0,0 km/h (0 Bft)
01.06.2023 06:45 8,2 C 88 % 1018,5 hPa 0,0 l/m 0,0 km/h (0 Bft) N 355 6,3 C 8,2 C 0,0 km/h (0 Bft)
01.06.2023 06:40 8,2 C 88 % 1018,5 hPa 0,0 l/m 0,6 km/h (0 Bft) N 355 6,3 C 8,2 C 1,6 km/h (1 Bft)
01.06.2023 06:35 8,2 C 88 % 1018,5 hPa 0,0 l/m 0,0 km/h (0 Bft) N 355 6,3 C 8,2 C 0,0 km/h (0 Bft)
01.06.2023 06:30 8,2 C 87 % 1018,5 hPa 0,0 l/m 0,0 km/h (0 Bft) N 355 6,2 C 8,2 C 1,6 km/h (1 Bft)
01.06.2023 06:25 8,0 C 88 % 1018,5 hPa 0,0 l/m 0,0 km/h (0 Bft) N 355 6,1 C 8,0 C 1,6 km/h (1 Bft)
01.06.2023 06:20 7,8 C 90 % 1018,5 hPa 0,0 l/m 0,1 km/h (0 Bft) N 355 6,3 C 7,8 C 1,6 km/h (1 Bft)
01.06.2023 06:15 7,7 C 89 % 1018,5 hPa 0,0 l/m 0,0 km/h (0 Bft) N 355 6,0 C 7,7 C 0,0 km/h (0 Bft)
01.06.2023 06:10 7,7 C 89 % 1018,5 hPa 0,0 l/m 0,0 km/h (0 Bft) N 355 6,0 C 7,7 C 1,6 km/h (1 Bft)
01.06.2023 06:05 7,7 C 89 % 1018,5 hPa 0,0 l/m 0,0 km/h (0 Bft) N 355 6,0 C 7,7 C 0,0 km/h (0 Bft)
01.06.2023 06:00 7,9 C 89 % 1018,5 hPa 0,0 l/m 0,0 km/h (0 Bft) N 355 6,2 C 7,9 C 0,0 km/h (0 Bft)
01.06.2023 05:55 7,9 C 89 % 1018,6 hPa 0,0 l/m 0,1 km/h (0 Bft) N 355 6,2 C 7,9 C 1,6 km/h (1 Bft)
01.06.2023 05:50 7,8 C 89 % 1018,5 hPa 0,0 l/m 0,0 km/h (0 Bft) N 355 6,1 C 7,8 C 0,0 km/h (0 Bft)
01.06.2023 05:45 7,7 C 89 % 1018,5 hPa 0,0 l/m 0,0 km/h (0 Bft) N 355 6,0 C 7,7 C 0,0 km/h (0 Bft)
01.06.2023 05:40 7,7 C 89 % 1018,5 hPa 0,0 l/m 0,0 km/h (0 Bft) N 355 6,0 C 7,7 C 0,0 km/h (0 Bft)
01.06.2023 05:35 7,6 C 89 % 1018,4 hPa 0,0 l/m 0,0 km/h (0 Bft) N 355 5,9 C 7,6 C 0,0 km/h (0 Bft)
01.06.2023 05:30 7,5 C 88 % 1018,5 hPa 0,0 l/m 0,0 km/h (0 Bft) N 355 5,6 C 7,5 C 0,0 km/h (0 Bft)
01.06.2023 05:25 7,6 C 88 % 1018,4 hPa 0,0 l/m 0,3 km/h (0 Bft) N 355 5,7 C 7,6 C 1,6 km/h (1 Bft)
01.06.2023 05:20 7,7 C 87 % 1018,5 hPa 0,0 l/m 0,1 km/h (0 Bft) N 355 5,7 C 7,7 C 1,6 km/h (1 Bft)
01.06.2023 05:15 8,0 C 86 % 1018,5 hPa 0,0 l/m 0,0 km/h (0 Bft) N 355 5,8 C 8,0 C 0,0 km/h (0 Bft)
01.06.2023 05:10 8,2 C 86 % 1018,5 hPa 0,0 l/m 0,0 km/h (0 Bft) N 355 6,0 C 8,2 C 0,0 km/h (0 Bft)
01.06.2023 05:05 8,2 C 85 % 1018,3 hPa 0,0 l/m 0,0 km/h (0 Bft) N 355 5,8 C 8,2 C 0,0 km/h (0 Bft)
01.06.2023 05:00 8,3 C 84 % 1018,5 hPa 0,0 l/m 0,0 km/h (0 Bft) N 355 5,8 C 8,3 C 0,0 km/h (0 Bft)
_ Min-Zeit 05:30 16:30 13:00 - 22:50 - - 05:30 05:30 22:50
Minimum _ 7,5 C 35 % 1016,9 hPa - 0,0 km/h (0 Bft) - - 5,6 C 7,5 C 0,0 km/h (0 Bft)
_ Max-Zeit 17:05 06:20 14:00 14:00 15:20 - - 09:45 17:05 17:45
Maximum _ 23,7 C 90 % 1020,4 hPa 0,0 l/m 10,8 km/h
O-SO (2 Bft)
- - 11,5 C 23,7 C 24,1 km/h
N (4 Bft)
Durchschnitt _ 16,9 C 58 % 1018,9 hPa #0,0 l/m 2,9 km/h (1 Bft) NW - 7,7 C 16,9 C 6,8 km/h (2 Bft)
Wettermessnetz Ostbayern / Wetterstation Dumpf